Vondelwijk, Netherlands
Current Conditions -  °F | °C
As of 2:25 PM on Wednesday 22 Oct 2014 (Local Time) from EHRD Reporting Station
Broken Clouds Broken Clouds  
Wind Chill: 55°   Ceiling: 4300
Heat Index: 55°   Visibility: 6mi
Dew Point: 46°   Wind: 18mph
Humidity: 72%   Direction: 310°NW
Pressure: 30.12"   Gusts: 30mph
Location:  52.05°N, 4.65°E
Report Text: EHRD 221225Z AUTO 31016G26KT 270V350 9999 SCT023CB SCT032BKN043 13/08 Q1020 NOSIG
Loading
Personal Weather Stations






























Interactive Weather Map
Tropical Storm Tracking
New forecast layout! Learn more

10-Day Weather Forecast

Advertisements
Track Severe Weather on mobile